sensor_id;sensor_type;location;lat;lon;timestamp;P1;durP1;ratioP1;P2;durP2;ratioP2
77417;SDS011;66490;51.484;0.026;2023-12-20T00:01:38;12.80;;;2.05;;
77417;SDS011;66490;51.484;0.026;2023-12-20T00:08:17;12.87;;;2.20;;
77417;SDS011;66490;51.484;0.026;2023-12-20T00:11:01;8.60;;;2.10;;
77417;SDS011;66490;51.484;0.026;2023-12-20T00:16:57;8.45;;;2.67;;
77417;SDS011;66490;51.484;0.026;2023-12-20T00:19:53;9.10;;;1.95;;
77417;SDS011;66490;51.484;0.026;2023-12-20T00:22:45;18.40;;;4.00;;
77417;SDS011;66490;51.484;0.026;2023-12-20T00:25:32;10.60;;;2.08;;
77417;SDS011;66490;51.484;0.026;2023-12-20T00:28:19;9.32;;;1.85;;
77417;SDS011;66490;51.484;0.026;2023-12-20T00:31:03;13.75;;;2.53;;
77417;SDS011;66490;51.484;0.026;2023-12-20T00:33:55;10.38;;;2.05;;
77417;SDS011;66490;51.484;0.026;2023-12-20T00:36:40;10.90;;;2.00;;
77417;SDS011;66490;51.484;0.026;2023-12-20T00:39:24;9.90;;;1.63;;
77417;SDS011;66490;51.484;0.026;2023-12-20T00:42:11;11.30;;;2.03;;
77417;SDS011;66490;51.484;0.026;2023-12-20T00:44:55;14.13;;;2.55;;
77417;SDS011;66490;51.484;0.026;2023-12-20T00:47:39;9.30;;;2.33;;
77417;SDS011;66490;51.484;0.026;2023-12-20T00:50:24;9.23;;;2.23;;
77417;SDS011;66490;51.484;0.026;2023-12-20T00:53:08;14.02;;;3.25;;
77417;SDS011;66490;51.484;0.026;2023-12-20T00:55:52;12.70;;;2.35;;
77417;SDS011;66490;51.484;0.026;2023-12-20T00:58:36;7.72;;;1.80;;
77417;SDS011;66490;51.484;0.026;2023-12-20T01:01:20;9.77;;;1.85;;
77417;SDS011;66490;51.484;0.026;2023-12-20T01:04:06;10.70;;;2.53;;
77417;SDS011;66490;51.484;0.026;2023-12-20T01:06:55;11.27;;;2.00;;
77417;SDS011;66490;51.484;0.026;2023-12-20T01:09:39;15.02;;;2.03;;
77417;SDS011;66490;51.484;0.026;2023-12-20T01:12:25;14.45;;;2.28;;
77417;SDS011;66490;51.484;0.026;2023-12-20T01:15:09;6.75;;;1.50;;
77417;SDS011;66490;51.484;0.026;2023-12-20T01:17:53;14.23;;;2.20;;
77417;SDS011;66490;51.484;0.026;2023-12-20T01:20:45;11.10;;;2.42;;
77417;SDS011;66490;51.484;0.026;2023-12-20T01:23:29;12.85;;;2.60;;
77417;SDS011;66490;51.484;0.026;2023-12-20T01:26:14;10.68;;;2.03;;
77417;SDS011;66490;51.484;0.026;2023-12-20T01:28:58;9.77;;;1.70;;
77417;SDS011;66490;51.484;0.026;2023-12-20T01:31:42;9.87;;;2.47;;
77417;SDS011;66490;51.484;0.026;2023-12-20T01:34:43;8.35;;;1.92;;
77417;SDS011;66490;51.484;0.026;2023-12-20T01:37:27;12.13;;;3.60;;
77417;SDS011;66490;51.484;0.026;2023-12-20T01:40:21;12.32;;;2.72;;
77417;SDS011;66490;51.484;0.026;2023-12-20T01:47:26;12.47;;;1.90;;
77417;SDS011;66490;51.484;0.026;2023-12-20T01:50:27;11.48;;;1.95;;
77417;SDS011;66490;51.484;0.026;2023-12-20T01:55:56;8.15;;;2.17;;
77417;SDS011;66490;51.484;0.026;2023-12-20T01:58:49;9.18;;;1.70;;
77417;SDS011;66490;51.484;0.026;2023-12-20T02:01:48;11.43;;;2.63;;
77417;SDS011;66490;51.484;0.026;2023-12-20T02:04:36;11.90;;;1.38;;
77417;SDS011;66490;51.484;0.026;2023-12-20T02:07:20;12.57;;;2.55;;
77417;SDS011;66490;51.484;0.026;2023-12-20T02:10:05;9.30;;;2.03;;
77417;SDS011;66490;51.484;0.026;2023-12-20T02:12:57;10.15;;;1.80;;
77417;SDS011;66490;51.484;0.026;2023-12-20T02:15:47;16.23;;;1.73;;
77417;SDS011;66490;51.484;0.026;2023-12-20T02:18:33;15.02;;;2.53;;
77417;SDS011;66490;51.484;0.026;2023-12-20T02:21:18;14.13;;;2.30;;
77417;SDS011;66490;51.484;0.026;2023-12-20T02:24:02;8.57;;;2.28;;
77417;SDS011;66490;51.484;0.026;2023-12-20T02:33:35;10.05;;;2.10;;
77417;SDS011;66490;51.484;0.026;2023-12-20T02:36:19;14.55;;;2.53;;
77417;SDS011;66490;51.484;0.026;2023-12-20T02:39:22;11.35;;;2.92;;
77417;SDS011;66490;51.484;0.026;2023-12-20T02:42:12;14.48;;;2.40;;
77417;SDS011;66490;51.484;0.026;2023-12-20T02:45:38;8.40;;;1.80;;
77417;SDS011;66490;51.484;0.026;2023-12-20T02:48:22;14.60;;;1.92;;
77417;SDS011;66490;51.484;0.026;2023-12-20T02:51:06;12.18;;;2.13;;
77417;SDS011;66490;51.484;0.026;2023-12-20T02:53:50;12.23;;;2.40;;
77417;SDS011;66490;51.484;0.026;2023-12-20T02:56:34;7.40;;;1.60;;
77417;SDS011;66490;51.484;0.026;2023-12-20T02:59:18;10.37;;;2.13;;
77417;SDS011;66490;51.484;0.026;2023-12-20T03:02:05;9.43;;;2.30;;
77417;SDS011;66490;51.484;0.026;2023-12-20T03:04:49;14.50;;;2.17;;
77417;SDS011;66490;51.484;0.026;2023-12-20T03:07:33;11.55;;;2.10;;
77417;SDS011;66490;51.484;0.026;2023-12-20T03:10:18;9.70;;;2.08;;
77417;SDS011;66490;51.484;0.026;2023-12-20T03:13:02;12.17;;;2.27;;
77417;SDS011;66490;51.484;0.026;2023-12-20T03:15:46;10.38;;;1.88;;
77417;SDS011;66490;51.484;0.026;2023-12-20T03:18:33;13.52;;;2.58;;
77417;SDS011;66490;51.484;0.026;2023-12-20T03:21:17;12.02;;;2.45;;
77417;SDS011;66490;51.484;0.026;2023-12-20T03:24:01;10.00;;;2.08;;
77417;SDS011;66490;51.484;0.026;2023-12-20T03:26:45;9.50;;;2.07;;
77417;SDS011;66490;51.484;0.026;2023-12-20T03:29:31;12.95;;;1.75;;
77417;SDS011;66490;51.484;0.026;2023-12-20T03:32:15;7.88;;;1.75;;
77417;SDS011;66490;51.484;0.026;2023-12-20T03:34:59;12.15;;;2.47;;
77417;SDS011;66490;51.484;0.026;2023-12-20T03:37:43;12.88;;;2.97;;
77417;SDS011;66490;51.484;0.026;2023-12-20T03:40:27;13.73;;;1.70;;
77417;SDS011;66490;51.484;0.026;2023-12-20T03:43:11;14.88;;;1.90;;
77417;SDS011;66490;51.484;0.026;2023-12-20T03:45:55;8.63;;;1.40;;
77417;SDS011;66490;51.484;0.026;2023-12-20T03:48:39;16.30;;;2.63;;
77417;SDS011;66490;51.484;0.026;2023-12-20T03:51:23;8.30;;;1.73;;
77417;SDS011;66490;51.484;0.026;2023-12-20T03:54:06;6.80;;;1.90;;
77417;SDS011;66490;51.484;0.026;2023-12-20T03:56:51;14.10;;;2.97;;
77417;SDS011;66490;51.484;0.026;2023-12-20T03:59:35;9.65;;;2.53;;
77417;SDS011;66490;51.484;0.026;2023-12-20T04:02:23;9.52;;;1.63;;
77417;SDS011;66490;51.484;0.026;2023-12-20T04:05:07;9.80;;;1.48;;
77417;SDS011;66490;51.484;0.026;2023-12-20T04:07:51;12.27;;;1.47;;
77417;SDS011;66490;51.484;0.026;2023-12-20T04:10:35;15.68;;;2.10;;
77417;SDS011;66490;51.484;0.026;2023-12-20T04:13:21;15.52;;;2.53;;
77417;SDS011;66490;51.484;0.026;2023-12-20T04:16:05;8.25;;;1.52;;
77417;SDS011;66490;51.484;0.026;2023-12-20T04:18:48;14.23;;;2.05;;
77417;SDS011;66490;51.484;0.026;2023-12-20T04:21:32;15.00;;;2.33;;
77417;SDS011;66490;51.484;0.026;2023-12-20T04:24:16;9.82;;;1.90;;
77417;SDS011;66490;51.484;0.026;2023-12-20T04:27:01;9.15;;;1.85;;
77417;SDS011;66490;51.484;0.026;2023-12-20T04:29:45;10.55;;;1.70;;
77417;SDS011;66490;51.484;0.026;2023-12-20T04:32:29;12.30;;;1.60;;
77417;SDS011;66490;51.484;0.026;2023-12-20T04:35:13;8.93;;;1.70;;
77417;SDS011;66490;51.484;0.026;2023-12-20T04:37:57;12.77;;;2.17;;
77417;SDS011;66490;51.484;0.026;2023-12-20T04:40:41;13.80;;;1.80;;
77417;SDS011;66490;51.484;0.026;2023-12-20T04:43:25;13.38;;;2.38;;
77417;SDS011;66490;51.484;0.026;2023-12-20T04:46:09;17.08;;;1.50;;
77417;SDS011;66490;51.484;0.026;2023-12-20T04:48:53;12.73;;;1.70;;
77417;SDS011;66490;51.484;0.026;2023-12-20T04:51:44;13.88;;;1.45;;
77417;SDS011;66490;51.484;0.026;2023-12-20T04:54:28;12.35;;;2.05;;
77417;SDS011;66490;51.484;0.026;2023-12-20T04:57:12;14.88;;;1.80;;
77417;SDS011;66490;51.484;0.026;2023-12-20T04:59:59;11.00;;;1.60;;
77417;SDS011;66490;51.484;0.026;2023-12-20T05:02:43;15.97;;;1.63;;
77417;SDS011;66490;51.484;0.026;2023-12-20T05:05:27;15.38;;;2.13;;
77417;SDS011;66490;51.484;0.026;2023-12-20T05:08:11;12.38;;;1.67;;
77417;SDS011;66490;51.484;0.026;2023-12-20T05:10:55;12.35;;;2.25;;
77417;SDS011;66490;51.484;0.026;2023-12-20T05:13:39;11.63;;;2.08;;
77417;SDS011;66490;51.484;0.026;2023-12-20T05:16:23;16.00;;;2.63;;
77417;SDS011;66490;51.484;0.026;2023-12-20T05:19:07;8.82;;;1.42;;
77417;SDS011;66490;51.484;0.026;2023-12-20T05:21:51;12.95;;;2.03;;
77417;SDS011;66490;51.484;0.026;2023-12-20T05:24:37;11.77;;;1.77;;
77417;SDS011;66490;51.484;0.026;2023-12-20T05:27:22;12.57;;;2.17;;
77417;SDS011;66490;51.484;0.026;2023-12-20T05:30:06;18.30;;;2.27;;
77417;SDS011;66490;51.484;0.026;2023-12-20T05:32:50;12.65;;;1.85;;
77417;SDS011;66490;51.484;0.026;2023-12-20T05:35:34;12.88;;;2.17;;
77417;SDS011;66490;51.484;0.026;2023-12-20T05:38:21;10.38;;;1.80;;
77417;SDS011;66490;51.484;0.026;2023-12-20T05:41:05;13.27;;;2.38;;
77417;SDS011;66490;51.484;0.026;2023-12-20T05:43:49;13.40;;;2.43;;
77417;SDS011;66490;51.484;0.026;2023-12-20T05:46:33;17.35;;;3.15;;
77417;SDS011;66490;51.484;0.026;2023-12-20T05:49:17;14.05;;;2.10;;
77417;SDS011;66490;51.484;0.026;2023-12-20T05:52:01;11.35;;;1.77;;
77417;SDS011;66490;51.484;0.026;2023-12-20T05:54:45;11.30;;;2.17;;
77417;SDS011;66490;51.484;0.026;2023-12-20T05:57:32;14.77;;;2.97;;
77417;SDS011;66490;51.484;0.026;2023-12-20T06:00:16;14.77;;;2.83;;
77417;SDS011;66490;51.484;0.026;2023-12-20T06:03:00;8.82;;;1.95;;
77417;SDS011;66490;51.484;0.026;2023-12-20T06:05:44;12.07;;;2.17;;
77417;SDS011;66490;51.484;0.026;2023-12-20T06:08:28;12.18;;;2.08;;
77417;SDS011;66490;51.484;0.026;2023-12-20T06:11:14;16.23;;;3.17;;
77417;SDS011;66490;51.484;0.026;2023-12-20T06:13:58;12.52;;;1.48;;
77417;SDS011;66490;51.484;0.026;2023-12-20T06:16:42;14.07;;;2.10;;
77417;SDS011;66490;51.484;0.026;2023-12-20T06:19:27;12.50;;;2.15;;
77417;SDS011;66490;51.484;0.026;2023-12-20T06:22:11;10.85;;;2.92;;
77417;SDS011;66490;51.484;0.026;2023-12-20T06:25:03;18.83;;;2.10;;
77417;SDS011;66490;51.484;0.026;2023-12-20T06:27:47;12.55;;;1.85;;
77417;SDS011;66490;51.484;0.026;2023-12-20T06:30:31;15.50;;;2.22;;
77417;SDS011;66490;51.484;0.026;2023-12-20T06:33:16;12.55;;;2.42;;
77417;SDS011;66490;51.484;0.026;2023-12-20T06:36:00;16.55;;;2.45;;
77417;SDS011;66490;51.484;0.026;2023-12-20T06:38:44;10.70;;;2.10;;
77417;SDS011;66490;51.484;0.026;2023-12-20T06:41:29;12.38;;;1.98;;
77417;SDS011;66490;51.484;0.026;2023-12-20T06:44:13;14.80;;;2.70;;
77417;SDS011;66490;51.484;0.026;2023-12-20T06:47:00;18.10;;;2.55;;
77417;SDS011;66490;51.484;0.026;2023-12-20T06:49:44;12.85;;;2.05;;
77417;SDS011;66490;51.484;0.026;2023-12-20T06:52:29;18.10;;;2.53;;
77417;SDS011;66490;51.484;0.026;2023-12-20T06:55:12;13.70;;;2.50;;
77417;SDS011;66490;51.484;0.026;2023-12-20T06:57:57;10.43;;;1.90;;
77417;SDS011;66490;51.484;0.026;2023-12-20T07:00:41;11.68;;;2.10;;
77417;SDS011;66490;51.484;0.026;2023-12-20T07:03:25;13.90;;;3.05;;
77417;SDS011;66490;51.484;0.026;2023-12-20T07:06:09;18.60;;;2.70;;
77417;SDS011;66490;51.484;0.026;2023-12-20T07:08:53;14.27;;;2.22;;
77417;SDS011;66490;51.484;0.026;2023-12-20T07:11:36;11.43;;;2.00;;
77417;SDS011;66490;51.484;0.026;2023-12-20T07:14:21;16.58;;;2.97;;
77417;SDS011;66490;51.484;0.026;2023-12-20T07:17:07;12.65;;;3.10;;
77417;SDS011;66490;51.484;0.026;2023-12-20T07:19:55;12.07;;;2.37;;
77417;SDS011;66490;51.484;0.026;2023-12-20T07:22:38;20.65;;;2.25;;
77417;SDS011;66490;51.484;0.026;2023-12-20T07:25:22;13.93;;;2.63;;
77417;SDS011;66490;51.484;0.026;2023-12-20T07:28:06;10.85;;;2.13;;
77417;SDS011;66490;51.484;0.026;2023-12-20T07:30:50;13.52;;;2.28;;
77417;SDS011;66490;51.484;0.026;2023-12-20T07:33:34;13.67;;;2.50;;
77417;SDS011;66490;51.484;0.026;2023-12-20T07:36:21;13.57;;;2.63;;
77417;SDS011;66490;51.484;0.026;2023-12-20T07:39:05;17.98;;;3.00;;
77417;SDS011;66490;51.484;0.026;2023-12-20T07:41:49;14.48;;;2.92;;
77417;SDS011;66490;51.484;0.026;2023-12-20T07:44:33;14.60;;;3.10;;
77417;SDS011;66490;51.484;0.026;2023-12-20T07:47:19;16.37;;;2.37;;
77417;SDS011;66490;51.484;0.026;2023-12-20T07:50:05;12.57;;;2.47;;
77417;SDS011;66490;51.484;0.026;2023-12-20T07:53:00;18.55;;;2.83;;
77417;SDS011;66490;51.484;0.026;2023-12-20T07:55:45;14.27;;;2.17;;
77417;SDS011;66490;51.484;0.026;2023-12-20T07:58:28;12.10;;;2.38;;
77417;SDS011;66490;51.484;0.026;2023-12-20T08:01:22;14.20;;;2.77;;
77417;SDS011;66490;51.484;0.026;2023-12-20T08:04:09;13.18;;;2.33;;
77417;SDS011;66490;51.484;0.026;2023-12-20T08:06:53;11.80;;;3.00;;
77417;SDS011;66490;51.484;0.026;2023-12-20T08:09:36;12.45;;;2.83;;
77417;SDS011;66490;51.484;0.026;2023-12-20T08:12:23;18.23;;;3.05;;
77417;SDS011;66490;51.484;0.026;2023-12-20T08:15:10;11.47;;;2.17;;
77417;SDS011;66490;51.484;0.026;2023-12-20T08:17:54;22.48;;;2.92;;
77417;SDS011;66490;51.484;0.026;2023-12-20T08:20:41;15.85;;;3.15;;
77417;SDS011;66490;51.484;0.026;2023-12-20T08:26:50;13.98;;;2.63;;
77417;SDS011;66490;51.484;0.026;2023-12-20T08:29:40;14.20;;;2.73;;
77417;SDS011;66490;51.484;0.026;2023-12-20T08:32:44;13.95;;;2.50;;
77417;SDS011;66490;51.484;0.026;2023-12-20T08:35:34;8.40;;;2.00;;
77417;SDS011;66490;51.484;0.026;2023-12-20T08:38:21;11.48;;;1.80;;
77417;SDS011;66490;51.484;0.026;2023-12-20T08:41:23;17.10;;;2.40;;
77417;SDS011;66490;51.484;0.026;2023-12-20T08:44:25;17.13;;;2.97;;
77417;SDS011;66490;51.484;0.026;2023-12-20T09:04:15;17.27;;;3.33;;
77417;SDS011;66490;51.484;0.026;2023-12-20T09:06:59;12.70;;;3.00;;
77417;SDS011;66490;51.484;0.026;2023-12-20T09:13:11;11.05;;;2.53;;
77417;SDS011;66490;51.484;0.026;2023-12-20T09:34:28;16.73;;;2.87;;
77417;SDS011;66490;51.484;0.026;2023-12-20T09:40:25;11.32;;;1.90;;
77417;SDS011;66490;51.484;0.026;2023-12-20T10:25:40;9.90;;;1.83;;
77417;SDS011;66490;51.484;0.026;2023-12-20T10:35:24;6.65;;;2.08;;
77417;SDS011;66490;51.484;0.026;2023-12-20T10:38:11;9.85;;;1.75;;
77417;SDS011;66490;51.484;0.026;2023-12-20T10:48:03;10.38;;;1.50;;
77417;SDS011;66490;51.484;0.026;2023-12-20T10:51:04;10.20;;;2.00;;
77417;SDS011;66490;51.484;0.026;2023-12-20T10:57:12;8.70;;;1.83;;
77417;SDS011;66490;51.484;0.026;2023-12-20T11:00:22;6.65;;;1.02;;
77417;SDS011;66490;51.484;0.026;2023-12-20T11:09:56;7.35;;;1.58;;
77417;SDS011;66490;51.484;0.026;2023-12-20T11:26:31;10.55;;;2.20;;
77417;SDS011;66490;51.484;0.026;2023-12-20T11:32:39;12.13;;;1.73;;
77417;SDS011;66490;51.484;0.026;2023-12-20T11:35:39;9.80;;;1.80;;
77417;SDS011;66490;51.484;0.026;2023-12-20T11:41:38;7.95;;;1.95;;
77417;SDS011;66490;51.484;0.026;2023-12-20T11:44:25;11.27;;;2.00;;
77417;SDS011;66490;51.484;0.026;2023-12-20T11:47:12;9.43;;;2.40;;
77417;SDS011;66490;51.484;0.026;2023-12-20T11:50:14;9.77;;;2.35;;
77417;SDS011;66490;51.484;0.026;2023-12-20T11:53:00;10.13;;;2.38;;
77417;SDS011;66490;51.484;0.026;2023-12-20T11:55:48;10.32;;;3.33;;
77417;SDS011;66490;51.484;0.026;2023-12-20T11:58:38;10.43;;;2.67;;
77417;SDS011;66490;51.484;0.026;2023-12-20T12:04:55;12.13;;;2.30;;
77417;SDS011;66490;51.484;0.026;2023-12-20T12:07:45;8.30;;;2.30;;
77417;SDS011;66490;51.484;0.026;2023-12-20T12:10:46;7.22;;;2.22;;
77417;SDS011;66490;51.484;0.026;2023-12-20T12:13:35;7.07;;;2.00;;
77417;SDS011;66490;51.484;0.026;2023-12-20T12:16:19;9.05;;;1.92;;
77417;SDS011;66490;51.484;0.026;2023-12-20T12:19:26;8.15;;;2.22;;
77417;SDS011;66490;51.484;0.026;2023-12-20T12:22:20;8.80;;;2.25;;
77417;SDS011;66490;51.484;0.026;2023-12-20T12:25:28;11.43;;;2.10;;
77417;SDS011;66490;51.484;0.026;2023-12-20T12:28:15;8.10;;;1.90;;
77417;SDS011;66490;51.484;0.026;2023-12-20T12:31:20;5.55;;;1.30;;
77417;SDS011;66490;51.484;0.026;2023-12-20T12:34:13;7.10;;;1.35;;
77417;SDS011;66490;51.484;0.026;2023-12-20T12:37:06;10.00;;;2.40;;
77417;SDS011;66490;51.484;0.026;2023-12-20T12:39:53;8.77;;;1.65;;
77417;SDS011;66490;51.484;0.026;2023-12-20T12:42:41;8.30;;;1.60;;
77417;SDS011;66490;51.484;0.026;2023-12-20T12:45:29;12.18;;;1.92;;
77417;SDS011;66490;51.484;0.026;2023-12-20T12:52:08;7.88;;;2.42;;
77417;SDS011;66490;51.484;0.026;2023-12-20T12:55:02;8.82;;;1.73;;
77417;SDS011;66490;51.484;0.026;2023-12-20T12:57:52;6.97;;;1.20;;
77417;SDS011;66490;51.484;0.026;2023-12-20T13:00:46;4.72;;;1.60;;
77417;SDS011;66490;51.484;0.026;2023-12-20T13:03:34;6.93;;;2.00;;
77417;SDS011;66490;51.484;0.026;2023-12-20T13:06:18;8.35;;;1.42;;
77417;SDS011;66490;51.484;0.026;2023-12-20T13:09:02;10.07;;;1.77;;
77417;SDS011;66490;51.484;0.026;2023-12-20T13:11:48;6.17;;;2.00;;
77417;SDS011;66490;51.484;0.026;2023-12-20T13:14:33;6.80;;;1.55;;
77417;SDS011;66490;51.484;0.026;2023-12-20T13:17:19;6.05;;;1.95;;
77417;SDS011;66490;51.484;0.026;2023-12-20T13:20:06;9.80;;;2.42;;
77417;SDS011;66490;51.484;0.026;2023-12-20T13:22:59;5.63;;;1.95;;
77417;SDS011;66490;51.484;0.026;2023-12-20T13:25:43;10.83;;;1.50;;
77417;SDS011;66490;51.484;0.026;2023-12-20T13:28:29;4.90;;;1.20;;
77417;SDS011;66490;51.484;0.026;2023-12-20T13:31:22;5.50;;;1.48;;
77417;SDS011;66490;51.484;0.026;2023-12-20T13:37:18;5.60;;;1.40;;
77417;SDS011;66490;51.484;0.026;2023-12-20T13:40:18;9.17;;;1.43;;
77417;SDS011;66490;51.484;0.026;2023-12-20T13:43:04;8.43;;;1.92;;
77417;SDS011;66490;51.484;0.026;2023-12-20T13:45:50;6.82;;;1.60;;
77417;SDS011;66490;51.484;0.026;2023-12-20T13:48:40;4.65;;;1.85;;
77417;SDS011;66490;51.484;0.026;2023-12-20T13:51:24;7.22;;;1.67;;
77417;SDS011;66490;51.484;0.026;2023-12-20T13:54:08;5.20;;;1.63;;
77417;SDS011;66490;51.484;0.026;2023-12-20T13:56:55;6.25;;;1.48;;
77417;SDS011;66490;51.484;0.026;2023-12-20T13:59:41;6.18;;;1.30;;
77417;SDS011;66490;51.484;0.026;2023-12-20T14:02:25;4.88;;;1.00;;
77417;SDS011;66490;51.484;0.026;2023-12-20T14:05:10;5.03;;;1.55;;
77417;SDS011;66490;51.484;0.026;2023-12-20T14:08:01;7.07;;;1.60;;
77417;SDS011;66490;51.484;0.026;2023-12-20T14:10:47;4.70;;;1.75;;
77417;SDS011;66490;51.484;0.026;2023-12-20T14:13:34;7.30;;;2.10;;
77417;SDS011;66490;51.484;0.026;2023-12-20T14:16:24;2.75;;;1.42;;
77417;SDS011;66490;51.484;0.026;2023-12-20T14:19:11;4.53;;;1.50;;
77417;SDS011;66490;51.484;0.026;2023-12-20T14:21:55;6.60;;;1.50;;
77417;SDS011;66490;51.484;0.026;2023-12-20T14:24:40;5.55;;;1.77;;
77417;SDS011;66490;51.484;0.026;2023-12-20T14:27:44;4.45;;;1.63;;
77417;SDS011;66490;51.484;0.026;2023-12-20T14:30:28;3.42;;;1.00;;
77417;SDS011;66490;51.484;0.026;2023-12-20T14:33:12;5.78;;;1.65;;
77417;SDS011;66490;51.484;0.026;2023-12-20T14:35:57;7.93;;;1.63;;
77417;SDS011;66490;51.484;0.026;2023-12-20T14:38:41;5.97;;;1.45;;
77417;SDS011;66490;51.484;0.026;2023-12-20T14:41:25;5.93;;;2.03;;
77417;SDS011;66490;51.484;0.026;2023-12-20T14:44:09;6.90;;;1.60;;
77417;SDS011;66490;51.484;0.026;2023-12-20T14:46:53;7.00;;;1.83;;
77417;SDS011;66490;51.484;0.026;2023-12-20T14:49:43;5.43;;;1.60;;
77417;SDS011;66490;51.484;0.026;2023-12-20T14:52:27;5.88;;;1.73;;
77417;SDS011;66490;51.484;0.026;2023-12-20T14:55:14;5.75;;;1.90;;
77417;SDS011;66490;51.484;0.026;2023-12-20T14:57:58;6.25;;;1.92;;
77417;SDS011;66490;51.484;0.026;2023-12-20T15:00:42;7.95;;;1.58;;
77417;SDS011;66490;51.484;0.026;2023-12-20T15:03:27;4.30;;;1.10;;
77417;SDS011;66490;51.484;0.026;2023-12-20T15:06:12;5.00;;;1.52;;
77417;SDS011;66490;51.484;0.026;2023-12-20T15:09:04;4.78;;;1.60;;
77417;SDS011;66490;51.484;0.026;2023-12-20T15:11:48;7.15;;;1.75;;
77417;SDS011;66490;51.484;0.026;2023-12-20T15:14:32;3.90;;;1.20;;
77417;SDS011;66490;51.484;0.026;2023-12-20T15:17:16;5.57;;;1.40;;
77417;SDS011;66490;51.484;0.026;2023-12-20T15:20:00;5.45;;;1.75;;
77417;SDS011;66490;51.484;0.026;2023-12-20T15:22:44;4.53;;;1.50;;
77417;SDS011;66490;51.484;0.026;2023-12-20T15:25:29;5.97;;;1.35;;
77417;SDS011;66490;51.484;0.026;2023-12-20T15:28:20;5.50;;;1.77;;
77417;SDS011;66490;51.484;0.026;2023-12-20T15:31:04;12.97;;;1.70;;
77417;SDS011;66490;51.484;0.026;2023-12-20T15:33:48;4.75;;;1.25;;
77417;SDS011;66490;51.484;0.026;2023-12-20T15:36:32;7.63;;;1.55;;
77417;SDS011;66490;51.484;0.026;2023-12-20T15:39:16;5.95;;;2.08;;
77417;SDS011;66490;51.484;0.026;2023-12-20T15:42:00;8.13;;;1.85;;
77417;SDS011;66490;51.484;0.026;2023-12-20T15:44:44;8.10;;;2.20;;
77417;SDS011;66490;51.484;0.026;2023-12-20T15:47:28;5.47;;;1.30;;
77417;SDS011;66490;51.484;0.026;2023-12-20T15:50:12;4.45;;;1.02;;
77417;SDS011;66490;51.484;0.026;2023-12-20T15:52:59;8.52;;;1.48;;
77417;SDS011;66490;51.484;0.026;2023-12-20T15:55:47;6.10;;;1.60;;
77417;SDS011;66490;51.484;0.026;2023-12-20T15:58:34;4.67;;;1.20;;
77417;SDS011;66490;51.484;0.026;2023-12-20T16:01:24;7.32;;;1.70;;
77417;SDS011;66490;51.484;0.026;2023-12-20T16:04:15;5.40;;;1.15;;
77417;SDS011;66490;51.484;0.026;2023-12-20T16:07:14;6.45;;;1.92;;
77417;SDS011;66490;51.484;0.026;2023-12-20T16:10:14;5.43;;;1.67;;
77417;SDS011;66490;51.484;0.026;2023-12-20T16:13:01;5.83;;;1.80;;
77417;SDS011;66490;51.484;0.026;2023-12-20T16:15:47;9.20;;;2.22;;
77417;SDS011;66490;51.484;0.026;2023-12-20T16:18:39;4.45;;;1.90;;
77417;SDS011;66490;51.484;0.026;2023-12-20T16:25:47;8.73;;;1.48;;
77417;SDS011;66490;51.484;0.026;2023-12-20T16:29:11;6.23;;;1.93;;
77417;SDS011;66490;51.484;0.026;2023-12-20T16:35:23;6.47;;;1.63;;
77417;SDS011;66490;51.484;0.026;2023-12-20T16:38:07;6.65;;;1.63;;
77417;SDS011;66490;51.484;0.026;2023-12-20T16:40:51;7.95;;;1.52;;
77417;SDS011;66490;51.484;0.026;2023-12-20T16:43:41;5.93;;;1.40;;
77417;SDS011;66490;51.484;0.026;2023-12-20T16:46:25;6.53;;;1.45;;
77417;SDS011;66490;51.484;0.026;2023-12-20T16:49:09;6.25;;;1.90;;
77417;SDS011;66490;51.484;0.026;2023-12-20T16:51:53;8.35;;;1.63;;
77417;SDS011;66490;51.484;0.026;2023-12-20T16:54:39;5.80;;;2.20;;
77417;SDS011;66490;51.484;0.026;2023-12-20T16:57:23;5.60;;;1.37;;
77417;SDS011;66490;51.484;0.026;2023-12-20T17:00:07;5.97;;;1.35;;
77417;SDS011;66490;51.484;0.026;2023-12-20T17:02:51;6.20;;;1.48;;
77417;SDS011;66490;51.484;0.026;2023-12-20T17:05:38;5.35;;;1.85;;
77417;SDS011;66490;51.484;0.026;2023-12-20T17:08:23;9.68;;;1.55;;
77417;SDS011;66490;51.484;0.026;2023-12-20T17:11:07;4.87;;;1.60;;
77417;SDS011;66490;51.484;0.026;2023-12-20T17:13:51;5.50;;;0.98;;
77417;SDS011;66490;51.484;0.026;2023-12-20T17:16:36;6.18;;;1.55;;
77417;SDS011;66490;51.484;0.026;2023-12-20T17:19:23;6.60;;;1.77;;
77417;SDS011;66490;51.484;0.026;2023-12-20T17:22:07;9.65;;;2.08;;
77417;SDS011;66490;51.484;0.026;2023-12-20T17:24:57;6.93;;;2.50;;
77417;SDS011;66490;51.484;0.026;2023-12-20T17:27:44;7.88;;;2.38;;
77417;SDS011;66490;51.484;0.026;2023-12-20T17:30:29;5.82;;;1.88;;
77417;SDS011;66490;51.484;0.026;2023-12-20T17:33:21;5.88;;;2.10;;
77417;SDS011;66490;51.484;0.026;2023-12-20T17:36:05;8.20;;;2.47;;
77417;SDS011;66490;51.484;0.026;2023-12-20T17:38:50;6.80;;;1.80;;
77417;SDS011;66490;51.484;0.026;2023-12-20T17:41:34;8.25;;;1.20;;
77417;SDS011;66490;51.484;0.026;2023-12-20T17:44:19;6.93;;;1.23;;
77417;SDS011;66490;51.484;0.026;2023-12-20T17:47:05;4.85;;;1.60;;
77417;SDS011;66490;51.484;0.026;2023-12-20T17:49:51;4.22;;;1.30;;
77417;SDS011;66490;51.484;0.026;2023-12-20T17:52:35;6.03;;;1.40;;
77417;SDS011;66490;51.484;0.026;2023-12-20T17:55:19;6.82;;;1.55;;
77417;SDS011;66490;51.484;0.026;2023-12-20T17:58:03;11.18;;;1.63;;
77417;SDS011;66490;51.484;0.026;2023-12-20T18:00:47;6.57;;;1.45;;
77417;SDS011;66490;51.484;0.026;2023-12-20T18:03:32;5.38;;;1.10;;
77417;SDS011;66490;51.484;0.026;2023-12-20T18:06:18;6.00;;;1.87;;
77417;SDS011;66490;51.484;0.026;2023-12-20T18:09:02;10.45;;;1.77;;
77417;SDS011;66490;51.484;0.026;2023-12-20T18:11:47;5.53;;;1.10;;
77417;SDS011;66490;51.484;0.026;2023-12-20T18:14:31;8.52;;;2.20;;
77417;SDS011;66490;51.484;0.026;2023-12-20T18:17:15;7.03;;;0.95;;
77417;SDS011;66490;51.484;0.026;2023-12-20T18:19:59;6.77;;;1.67;;
77417;SDS011;66490;51.484;0.026;2023-12-20T18:22:46;9.57;;;1.80;;
77417;SDS011;66490;51.484;0.026;2023-12-20T18:25:32;8.38;;;2.38;;
77417;SDS011;66490;51.484;0.026;2023-12-20T18:28:23;4.50;;;2.05;;
77417;SDS011;66490;51.484;0.026;2023-12-20T18:31:14;6.45;;;1.60;;
77417;SDS011;66490;51.484;0.026;2023-12-20T18:34:00;4.87;;;1.27;;
77417;SDS011;66490;51.484;0.026;2023-12-20T18:36:57;10.05;;;2.10;;
77417;SDS011;66490;51.484;0.026;2023-12-20T18:39:41;8.13;;;1.95;;
77417;SDS011;66490;51.484;0.026;2023-12-20T18:42:31;6.88;;;1.67;;
77417;SDS011;66490;51.484;0.026;2023-12-20T18:45:15;7.40;;;1.77;;
77417;SDS011;66490;51.484;0.026;2023-12-20T18:47:59;8.83;;;1.67;;
77417;SDS011;66490;51.484;0.026;2023-12-20T18:50:43;10.52;;;1.55;;
77417;SDS011;66490;51.484;0.026;2023-12-20T18:53:27;10.65;;;1.65;;
77417;SDS011;66490;51.484;0.026;2023-12-20T18:56:11;7.93;;;1.70;;
77417;SDS011;66490;51.484;0.026;2023-12-20T18:58:57;8.60;;;1.92;;
77417;SDS011;66490;51.484;0.026;2023-12-20T19:01:41;9.17;;;2.17;;
77417;SDS011;66490;51.484;0.026;2023-12-20T19:04:25;13.10;;;1.60;;
77417;SDS011;66490;51.484;0.026;2023-12-20T19:07:09;12.95;;;2.40;;
77417;SDS011;66490;51.484;0.026;2023-12-20T19:09:53;10.00;;;2.08;;
77417;SDS011;66490;51.484;0.026;2023-12-20T19:12:37;8.63;;;2.05;;
77417;SDS011;66490;51.484;0.026;2023-12-20T19:15:21;13.27;;;1.73;;
77417;SDS011;66490;51.484;0.026;2023-12-20T19:18:05;8.68;;;2.58;;
77417;SDS011;66490;51.484;0.026;2023-12-20T19:20:49;9.35;;;2.10;;
77417;SDS011;66490;51.484;0.026;2023-12-20T19:23:36;12.02;;;2.47;;
77417;SDS011;66490;51.484;0.026;2023-12-20T19:26:21;12.98;;;2.70;;
77417;SDS011;66490;51.484;0.026;2023-12-20T19:29:05;7.57;;;1.93;;